createdAt,value
2022-08-22T00:00:13.367Z,100091.03
2022-08-22T00:02:46.056Z,100107.50
2022-08-22T00:02:59.456Z,100100.84
2022-08-22T00:03:00.125Z,100027.56
2022-08-22T00:03:10.195Z,100130.75
2022-08-22T00:05:59.364Z,100121.88
2022-08-22T00:08:41.929Z,100103.19
2022-08-22T00:11:34.824Z,100097.47
2022-08-22T00:14:26.011Z,100112.53
2022-08-22T00:17:11.395Z,100098.19
2022-08-22T00:20:18.761Z,100101.44
2022-08-22T00:23:02.517Z,100098.97
2022-08-22T00:25:44.682Z,100103.03
2022-08-22T00:28:21.048Z,100099.31
2022-08-22T00:31:08.464Z,100102.66
2022-08-22T00:33:45.492Z,100094.16
2022-08-22T00:36:30.447Z,100112.44
2022-08-22T00:39:10.332Z,100107.66
2022-08-22T00:41:56.712Z,100105.47
2022-08-22T00:44:35.942Z,100099.66
2022-08-22T00:47:17.316Z,100117.59
2022-08-22T00:50:17.745Z,100112.25
2022-08-22T00:53:12.526Z,100106.88
2022-08-22T00:55:48.699Z,100111.84
2022-08-22T00:58:33.468Z,100107.78
2022-08-22T01:01:07.238Z,100110.53
2022-08-22T01:04:04.460Z,100110.53
2022-08-22T01:06:53.184Z,100121.09
2022-08-22T01:09:38.740Z,100129.63
2022-08-22T01:12:27.374Z,100107.97
2022-08-22T01:15:03.184Z,100126.22
2022-08-22T01:17:54.969Z,100126.75
2022-08-22T01:20:35.568Z,100117.16
2022-08-22T01:23:36.655Z,100126.59
2022-08-22T01:26:26.804Z,100140.28
2022-08-22T01:29:08.510Z,100139.41
2022-08-22T01:32:09.797Z,100139.06
2022-08-22T01:34:57.251Z,100139.78
2022-08-22T01:37:47.461Z,100133.97
2022-08-22T01:40:36.827Z,100138.88
2022-08-22T01:44:10.517Z,100125.47
2022-08-22T01:47:17.961Z,100130.38
2022-08-22T01:50:18.478Z,100145.50
2022-08-22T01:52:51.278Z,100133.19
2022-08-22T01:55:36.822Z,100136.00
2022-08-22T01:58:17.880Z,100161.47
2022-08-22T02:01:11.308Z,100153.38
2022-08-22T02:04:01.162Z,100152.63
2022-08-22T02:06:45.568Z,100155.31
2022-08-22T02:09:23.893Z,100146.34
2022-08-22T02:12:21.912Z,100146.28
2022-08-22T02:15:19.368Z,100171.94
2022-08-22T02:18:09.303Z,100162.25
2022-08-22T02:20:48.653Z,100163.41
2022-08-22T02:23:19.503Z,100161.31
2022-08-22T02:25:53.127Z,100174.25
2022-08-22T02:28:38.116Z,100178.25
2022-08-22T02:31:20.352Z,100177.38
2022-08-22T02:33:59.232Z,100178.84
2022-08-22T02:36:33.312Z,100180.78
2022-08-22T02:39:24.123Z,100185.94
2022-08-22T02:42:13.038Z,100182.72
2022-08-22T02:44:53.166Z,100182.78
2022-08-22T02:47:47.539Z,100182.47
2022-08-22T02:50:17.713Z,100192.97
2022-08-22T02:53:09.366Z,100185.09
2022-08-22T02:56:15.090Z,100183.13
2022-08-22T02:59:14.718Z,100186.84
2022-08-22T03:01:45.618Z,100192.19
2022-08-22T03:04:26.706Z,100202.25
2022-08-22T03:07:20.686Z,100180.41
2022-08-22T03:09:51.312Z,100195.03
2022-08-22T03:12:40.476Z,100195.13
2022-08-22T03:15:40.641Z,100193.78
2022-08-22T03:18:33.032Z,100193.84
2022-08-22T03:21:34.696Z,100204.03
2022-08-22T03:24:12.191Z,100208.53
2022-08-22T03:27:03.166Z,100199.91
2022-08-22T03:29:43.400Z,100192.56
2022-08-22T03:32:15.222Z,100203.22
2022-08-22T03:35:02.167Z,100209.28
2022-08-22T03:37:40.658Z,100204.03
2022-08-22T03:40:20.145Z,100214.72
2022-08-22T03:43:16.270Z,100215.97
2022-08-22T03:46:05.527Z,100202.53
2022-08-22T03:49:00.068Z,100220.00
2022-08-22T03:51:32.639Z,100217.22
2022-08-22T03:54:24.821Z,100212.31
2022-08-22T03:57:32.503Z,100213.13
2022-08-22T04:00:12.111Z,100231.81
2022-08-22T04:02:45.191Z,100220.50
2022-08-22T04:05:30.915Z,100234.81
2022-08-22T04:08:13.283Z,100235.69
2022-08-22T04:10:44.493Z,100239.19
2022-08-22T04:13:50.107Z,100221.69
2022-08-22T04:16:48.090Z,100244.06
2022-08-22T04:19:48.048Z,100212.22
2022-08-22T04:22:33.625Z,100244.50
2022-08-22T04:25:12.316Z,100240.44
2022-08-22T04:27:53.289Z,100241.34
2022-08-22T04:30:26.447Z,100236.19
2022-08-22T04:33:02.777Z,100231.50
2022-08-22T04:35:57.004Z,100241.34
2022-08-22T04:39:05.035Z,100232.56
2022-08-22T04:41:44.717Z,100260.19
2022-08-22T04:44:19.466Z,100233.84
2022-08-22T04:47:02.608Z,100239.25
2022-08-22T04:49:44.384Z,100234.41
2022-08-22T04:52:18.757Z,100232.88
2022-08-22T04:55:01.202Z,100234.31
2022-08-22T04:57:52.087Z,100235.19
2022-08-22T05:00:19.700Z,100220.94
2022-08-22T05:02:50.860Z,100223.09
2022-08-22T05:05:24.784Z,100218.25
2022-08-22T05:07:57.484Z,100219.47
2022-08-22T05:10:28.032Z,100212.66
2022-08-22T05:13:39.479Z,100221.69
2022-08-22T05:16:15.154Z,100222.94
2022-08-22T05:18:55.004Z,100207.50
2022-08-22T05:21:27.204Z,100212.75
2022-08-22T05:24:01.958Z,100229.13
2022-08-22T05:26:35.858Z,100203.88
2022-08-22T05:29:11.011Z,100214.53
2022-08-22T05:31:49.688Z,100204.72
2022-08-22T05:34:25.113Z,100197.84
2022-08-22T05:37:00.514Z,100207.66
2022-08-22T05:39:30.074Z,100220.72
2022-08-22T05:42:01.640Z,100201.16
2022-08-22T05:44:34.304Z,100210.22
2022-08-22T05:47:03.471Z,100206.53
2022-08-22T05:49:39.241Z,100219.19
2022-08-22T05:52:19.764Z,100212.28
2022-08-22T05:55:13.523Z,100211.06
2022-08-22T05:57:47.315Z,100219.59
2022-08-22T06:00:28.589Z,100223.28
2022-08-22T06:03:18.020Z,100229.41
2022-08-22T06:05:51.627Z,100214.31
2022-08-22T06:08:21.805Z,100227.78
2022-08-22T06:10:57.945Z,100229.81
2022-08-22T06:13:42.085Z,100220.00
2022-08-22T06:16:22.619Z,100233.09
2022-08-22T06:18:52.504Z,100224.94
2022-08-22T06:21:19.762Z,100218.00
2022-08-22T06:24:00.209Z,100227.78
2022-08-22T06:26:34.772Z,100215.97
2022-08-22T06:29:03.560Z,100220.00
2022-08-22T06:31:38.075Z,100223.69
2022-08-22T06:34:12.393Z,100208.56
2022-08-22T06:36:43.856Z,100220.41
2022-08-22T06:39:16.631Z,100223.69
2022-08-22T06:41:55.433Z,100230.56
2022-08-22T06:44:54.626Z,100195.44
2022-08-22T06:47:28.840Z,100221.16
2022-08-22T06:50:05.854Z,100218.66
2022-08-22T06:52:39.195Z,100218.25
2022-08-22T06:55:09.478Z,100226.38
2022-08-22T06:57:55.190Z,100233.69
2022-08-22T07:00:22.947Z,100217.75
2022-08-22T07:02:57.959Z,100218.91
2022-08-22T07:05:29.164Z,100222.16
2022-08-22T07:07:57.313Z,100227.84
2022-08-22T07:10:25.970Z,100209.78
2022-08-22T07:12:56.799Z,100229.81
2022-08-22T07:15:37.708Z,100221.94
2022-08-22T07:18:09.119Z,100225.59
2022-08-22T07:20:45.396Z,100221.03
2022-08-22T07:23:33.384Z,100191.50
2022-08-22T07:26:06.692Z,100206.16
2022-08-22T07:28:51.484Z,100201.22
2022-08-22T07:31:37.265Z,100215.44
2022-08-22T07:34:23.823Z,100199.00
2022-08-22T07:37:06.859Z,100200.53
2022-08-22T07:39:47.217Z,100213.94
2022-08-22T07:42:17.583Z,100200.75
2022-08-22T07:45:01.184Z,100214.16
2022-08-22T07:48:08.773Z,100207.13
2022-08-22T07:50:43.743Z,100221.75
2022-08-22T07:53:34.402Z,100198.75
2022-08-22T07:56:07.171Z,100202.28
2022-08-22T07:58:39.797Z,100195.22
2022-08-22T08:01:15.718Z,100195.63
2022-08-22T08:03:49.595Z,100207.28
2022-08-22T08:06:17.389Z,100185.88
2022-08-22T08:08:45.580Z,100183.31
2022-08-22T08:11:17.184Z,100181.50
2022-08-22T08:13:50.333Z,100185.94
2022-08-22T08:16:21.931Z,100207.38
2022-08-22T08:18:53.145Z,100198.66
2022-08-22T08:21:36.933Z,100206.66
2022-08-22T08:24:07.961Z,100205.03
2022-08-22T08:27:02.627Z,100190.47
2022-08-22T08:29:32.239Z,100186.31
2022-08-22T08:32:01.194Z,100190.75
2022-08-22T08:34:35.480Z,100175.78
2022-08-22T08:37:12.995Z,100175.31
2022-08-22T08:39:50.864Z,100194.31
2022-08-22T08:42:59.974Z,100198.28
2022-08-22T08:45:38.673Z,100197.34
2022-08-22T08:48:54.359Z,100178.88
2022-08-22T08:51:46.370Z,100199.97
2022-08-22T08:54:16.707Z,100206.91
2022-08-22T08:57:12.690Z,100201.00
2022-08-22T09:00:14.505Z,100196.75
2022-08-22T09:02:44.891Z,100190.53
2022-08-22T09:05:43.254Z,100197.81
2022-08-22T09:08:56.019Z,100176.66
2022-08-22T09:12:04.731Z,100203.56
2022-08-22T09:15:25.691Z,100175.50
2022-08-22T09:18:08.658Z,100155.53
2022-08-22T09:20:56.355Z,100190.34
2022-08-22T09:23:53.307Z,100204.59
2022-08-22T09:26:23.799Z,100172.00
2022-08-22T09:29:12.143Z,100202.38
2022-08-22T09:31:59.686Z,100179.91
2022-08-22T09:34:57.017Z,100185.34
2022-08-22T09:37:53.226Z,100161.66
2022-08-22T09:40:31.348Z,100178.75
2022-08-22T09:43:06.615Z,100173.47
2022-08-22T09:45:50.078Z,100175.34
2022-08-22T09:48:29.922Z,100202.09
2022-08-22T09:51:32.001Z,100180.66
2022-08-22T09:54:31.260Z,100187.16
2022-08-22T09:57:10.227Z,100160.78
2022-08-22T09:59:58.121Z,100186.03
2022-08-22T10:02:44.256Z,100192.78
2022-08-22T10:05:39.467Z,100183.97
2022-08-22T10:08:14.482Z,100179.81
2022-08-22T10:11:13.290Z,100182.78
2022-08-22T10:14:04.790Z,100168.63
2022-08-22T10:16:43.326Z,100190.34
2022-08-22T10:19:28.732Z,100173.75
2022-08-22T10:22:17.090Z,100184.84
2022-08-22T10:25:23.205Z,100188.34
2022-08-22T10:28:15.209Z,100190.34
2022-08-22T10:31:08.180Z,100188.19
2022-08-22T10:33:42.584Z,100206.66
2022-08-22T10:36:23.798Z,100184.19
2022-08-22T10:39:00.127Z,100193.19
2022-08-22T10:41:50.835Z,100196.03
2022-08-22T10:44:53.758Z,100182.41
2022-08-22T10:47:28.783Z,100185.31
2022-08-22T10:50:10.722Z,100187.63
2022-08-22T10:52:49.089Z,100167.69
2022-08-22T10:55:27.130Z,100182.81
2022-08-22T10:58:02.241Z,100197.13
2022-08-22T11:00:46.013Z,100165.84
2022-08-22T11:03:34.774Z,100169.72
2022-08-22T11:06:31.391Z,100180.72
2022-08-22T11:09:00.159Z,100177.81
2022-08-22T11:11:33.474Z,100188.91
2022-08-22T11:14:22.487Z,100174.69
2022-08-22T11:17:11.964Z,100176.22
2022-08-22T11:20:00.276Z,100169.97
2022-08-22T11:22:42.175Z,100187.31
2022-08-22T11:25:26.882Z,100192.88
2022-08-22T11:28:22.346Z,100164.69
2022-08-22T11:31:07.232Z,100168.25
2022-08-22T11:33:48.401Z,100176.81
2022-08-22T11:36:37.557Z,100162.25
2022-08-22T11:39:27.742Z,100161.91
2022-08-22T11:42:07.391Z,100168.25
2022-08-22T11:44:50.300Z,100174.16
2022-08-22T11:47:26.710Z,100179.94
2022-08-22T11:50:35.345Z,100167.47
2022-08-22T11:53:26.824Z,100180.50
2022-08-22T11:56:33.364Z,100171.75
2022-08-22T11:59:22.830Z,100170.13
2022-08-22T12:02:00.839Z,100180.63
2022-08-22T12:04:42.680Z,100165.00
2022-08-22T12:07:34.752Z,100155.78
2022-08-22T12:10:27.352Z,100167.47
2022-08-22T12:13:04.940Z,100144.72
2022-08-22T12:16:09.530Z,100161.97
2022-08-22T12:18:52.757Z,100145.88
2022-08-22T12:21:29.679Z,100161.50
2022-08-22T12:24:19.441Z,100170.97
2022-08-22T12:26:48.440Z,100168.44
2022-08-22T12:29:49.197Z,100166.59
2022-08-22T12:32:49.386Z,100164.00
2022-08-22T12:35:45.852Z,100140.88
2022-08-22T12:38:38.520Z,100151.53
2022-08-22T12:41:46.848Z,100162.97
2022-08-22T12:44:33.721Z,100159.97
2022-08-22T12:47:34.438Z,100165.06
2022-08-22T12:50:26.398Z,100167.03
2022-08-22T12:53:02.080Z,100157.66
2022-08-22T12:55:43.910Z,100168.41
2022-08-22T12:58:23.230Z,100170.84
2022-08-22T13:00:52.611Z,100177.44
2022-08-22T13:03:33.004Z,100179.38
2022-08-22T13:06:24.917Z,100171.41
2022-08-22T13:08:53.528Z,100169.06
2022-08-22T13:11:23.586Z,100183.44
2022-08-22T13:13:57.254Z,100176.75
2022-08-22T13:16:26.219Z,100172.22
2022-08-22T13:19:07.387Z,100179.97
2022-08-22T13:21:43.520Z,100192.00
2022-08-22T13:24:22.736Z,100171.31
2022-08-22T13:27:15.009Z,100177.66
2022-08-22T13:29:49.870Z,100179.50
2022-08-22T13:32:46.672Z,100194.31
2022-08-22T13:35:26.080Z,100194.31
2022-08-22T13:38:04.803Z,100182.28
2022-08-22T13:40:34.092Z,100191.31
2022-08-22T13:43:11.891Z,100179.28
2022-08-22T13:45:48.505Z,100191.78
2022-08-22T13:48:16.274Z,100177.09
2022-08-22T13:51:22.539Z,100198.25
2022-08-22T13:54:02.324Z,100184.38
2022-08-22T13:56:50.868Z,100183.09
2022-08-22T13:59:50.907Z,100179.28
2022-08-22T14:02:43.364Z,100182.53
2022-08-22T14:05:46.443Z,100177.66
2022-08-22T14:08:32.407Z,100189.22
2022-08-22T14:11:30.902Z,100180.56
2022-08-22T14:14:02.474Z,100190.75
2022-08-22T14:16:38.816Z,100185.75
2022-08-22T14:19:14.646Z,100195.94
2022-08-22T14:22:06.548Z,100207.41
2022-08-22T14:24:45.451Z,100184.16
2022-08-22T14:27:27.605Z,100195.25
2022-08-22T14:30:13.568Z,100177.75
2022-08-22T14:33:17.601Z,100173.97
2022-08-22T14:35:52.813Z,100186.69
2022-08-22T14:38:37.768Z,100183.06
2022-08-22T14:41:26.989Z,100179.75
2022-08-22T14:44:02.345Z,100176.94
2022-08-22T14:46:41.975Z,100184.81
2022-08-22T14:49:18.834Z,100178.09
2022-08-22T14:51:55.277Z,100192.34
2022-08-22T14:54:29.103Z,100196.38
2022-08-22T14:56:59.209Z,100193.47
2022-08-22T14:59:32.424Z,100183.53
2022-08-22T15:02:10.584Z,100204.28
2022-08-22T15:04:42.266Z,100194.78
2022-08-22T15:07:11.088Z,100202.41
2022-08-22T15:09:52.321Z,100212.59
2022-08-22T15:12:29.010Z,100210.63
2022-08-22T15:15:03.111Z,100213.97
2022-08-22T15:17:51.069Z,100219.66
2022-08-22T15:20:38.263Z,100213.97
2022-08-22T15:23:23.028Z,100218.59
2022-08-22T15:26:03.973Z,100223.94
2022-08-22T15:28:53.333Z,100232.34
2022-08-22T15:31:22.424Z,100215.13
2022-08-22T15:33:51.743Z,100201.66
2022-08-22T15:36:25.102Z,100222.84
2022-08-22T15:39:27.669Z,100228.09
2022-08-22T15:41:56.355Z,100243.53
2022-08-22T15:44:33.055Z,100227.00
2022-08-22T15:47:28.473Z,100214.38
2022-08-22T15:50:05.402Z,100234.50
2022-08-22T15:52:59.008Z,100236.78
2022-08-22T15:55:34.542Z,100239.31
2022-08-22T15:58:09.090Z,100232.81
2022-08-22T16:00:45.133Z,100241.13
2022-08-22T16:03:25.871Z,100243.88
2022-08-22T16:05:55.885Z,100247.59
2022-08-22T16:08:52.735Z,100248.03
2022-08-22T16:11:33.791Z,100245.81
2022-08-22T16:14:21.247Z,100253.25
2022-08-22T16:17:05.314Z,100242.94
2022-08-22T16:19:35.473Z,100262.06
2022-08-22T16:22:07.409Z,100258.72
2022-08-22T16:24:58.783Z,100261.25
2022-08-22T16:27:28.060Z,100268.06
2022-08-22T16:30:08.363Z,100264.91
2022-08-22T16:32:36.592Z,100256.41
2022-08-22T16:35:04.453Z,100267.69
2022-08-22T16:37:46.938Z,100268.88
2022-08-22T16:40:21.375Z,100274.03
2022-08-22T16:43:10.743Z,100278.41
2022-08-22T16:45:45.772Z,100275.88
2022-08-22T16:48:27.764Z,100259.31
2022-08-22T16:51:05.541Z,100293.63
2022-08-22T16:53:39.125Z,100271.00
2022-08-22T16:56:51.740Z,100299.13
2022-08-22T16:59:38.593Z,100308.34
2022-08-22T17:02:35.424Z,100304.28
2022-08-22T17:05:45.624Z,100310.84
2022-08-22T17:08:34.335Z,100302.91
2022-08-22T17:11:20.674Z,100319.31
2022-08-22T17:14:03.839Z,100313.72
2022-08-22T17:16:54.932Z,100325.16
2022-08-22T17:20:03.819Z,100316.59
2022-08-22T17:23:00.240Z,100307.75
2022-08-22T17:25:38.298Z,100312.41
2022-08-22T17:28:13.644Z,100311.22
2022-08-22T17:30:46.595Z,100326.16
2022-08-22T17:33:52.286Z,100319.94
2022-08-22T17:36:31.775Z,100318.41
2022-08-22T17:39:36.266Z,100316.47
2022-08-22T17:42:25.724Z,100319.50
2022-08-22T17:45:03.739Z,100335.63
2022-08-22T17:47:40.249Z,100327.59
2022-08-22T17:50:21.175Z,100323.59
2022-08-22T17:53:16.294Z,100347.25
2022-08-22T17:56:19.467Z,100328.31
2022-08-22T17:58:59.953Z,100331.34
2022-08-22T18:01:42.646Z,100338.81
2022-08-22T18:04:20.217Z,100342.63
2022-08-22T18:07:00.883Z,100340.66
2022-08-22T18:09:40.425Z,100342.38
2022-08-22T18:12:17.903Z,100345.69
2022-08-22T18:14:59.530Z,100348.28
2022-08-22T18:17:40.284Z,100352.41
2022-08-22T18:20:23.133Z,100354.13
2022-08-22T18:23:39.197Z,100350.34
2022-08-22T18:26:13.944Z,100357.00
2022-08-22T18:29:11.373Z,100351.41
2022-08-22T18:32:03.958Z,100348.19
2022-08-22T18:34:49.065Z,100355.59
2022-08-22T18:37:46.892Z,100360.16
2022-08-22T18:40:51.508Z,100366.84
2022-08-22T18:43:37.364Z,100361.63
2022-08-22T18:46:27.018Z,100366.41
2022-08-22T18:49:14.654Z,100371.94
2022-08-22T18:51:42.683Z,100365.00
2022-08-22T18:54:12.675Z,100372.88
2022-08-22T18:56:50.848Z,100375.88
2022-08-22T18:59:21.203Z,100374.66
2022-08-22T19:02:12.187Z,100381.25
2022-08-22T19:05:13.413Z,100385.03
2022-08-22T19:07:47.128Z,100378.53
2022-08-22T19:10:20.986Z,100383.91
2022-08-22T19:13:06.846Z,100380.00
2022-08-22T19:15:48.254Z,100384.34
2022-08-22T19:18:31.601Z,100379.63
2022-08-22T19:21:32.396Z,100391.09
2022-08-22T19:24:00.842Z,100381.47
2022-08-22T19:26:37.044Z,100393.75
2022-08-22T19:29:30.082Z,100386.31
2022-08-22T19:32:02.051Z,100390.66
2022-08-22T19:34:35.320Z,100388.31
2022-08-22T19:37:32.391Z,100394.00
2022-08-22T19:40:02.112Z,100388.44
2022-08-22T19:42:36.603Z,100389.66
2022-08-22T19:45:09.798Z,100392.53
2022-08-22T19:47:40.769Z,100401.50
2022-08-22T19:50:18.396Z,100385.06
2022-08-22T19:53:22.723Z,100382.78
2022-08-22T19:56:22.044Z,100394.56
2022-08-22T19:58:54.274Z,100390.22
2022-08-22T20:01:56.586Z,100401.72
2022-08-22T20:04:35.149Z,100392.28
2022-08-22T20:07:24.232Z,100400.13
2022-08-22T20:10:04.492Z,100396.13
2022-08-22T20:12:44.763Z,100384.28
2022-08-22T20:15:26.100Z,100383.84
2022-08-22T20:20:59.147Z,100387.53
2022-08-22T20:23:32.349Z,100387.66
2022-08-22T20:26:00.746Z,100404.34
2022-08-22T20:28:37.216Z,100396.81
2022-08-22T20:31:12.525Z,100396.84
2022-08-22T20:33:43.393Z,100403.75
2022-08-22T20:36:28.500Z,100392.84
2022-08-22T20:39:06.002Z,100400.59
2022-08-22T20:41:40.684Z,100403.47
2022-08-22T20:44:12.753Z,100398.13
2022-08-22T20:46:46.357Z,100394.41
2022-08-22T20:49:30.548Z,100401.00
2022-08-22T20:52:04.057Z,100400.19
2022-08-22T20:54:34.717Z,100399.41
2022-08-22T20:57:18.750Z,100408.03
2022-08-22T21:00:13.004Z,100401.97
2022-08-22T21:03:22.467Z,100405.19
2022-08-22T21:05:49.757Z,100385.66
2022-08-22T21:08:24.559Z,100402.03
2022-08-22T21:11:24.976Z,100398.38
2022-08-22T21:13:53.656Z,100388.22
2022-08-22T21:16:33.581Z,100395.22
2022-08-22T21:19:04.531Z,100392.41
2022-08-22T21:21:34.743Z,100400.28
2022-08-22T21:24:07.990Z,100399.03
2022-08-22T21:26:39.225Z,100393.81
2022-08-22T21:29:09.234Z,100411.47
2022-08-22T21:31:49.737Z,100408.16
2022-08-22T21:34:41.263Z,100417.53
2022-08-22T21:37:14.816Z,100403.69
2022-08-22T21:39:46.206Z,100391.03
2022-08-22T21:42:31.348Z,100402.09
2022-08-22T21:45:08.250Z,100398.06
2022-08-22T21:47:38.874Z,100394.41
2022-08-22T21:50:21.131Z,100390.38
2022-08-22T21:52:56.000Z,100401.78
2022-08-22T21:55:37.382Z,100399.22
2022-08-22T21:58:36.046Z,100403.84
2022-08-22T22:01:31.849Z,100409.53
2022-08-22T22:03:59.917Z,100408.66
2022-08-22T22:06:27.466Z,100403.88
2022-08-22T22:08:55.437Z,100399.81
2022-08-22T22:11:22.960Z,100399.81
2022-08-22T22:13:51.016Z,100399.81
2022-08-22T22:16:25.389Z,100398.63
2022-08-22T22:18:53.048Z,100400.63
2022-08-22T22:21:20.543Z,100405.63
2022-08-22T22:23:49.534Z,100404.97
2022-08-22T22:26:17.050Z,100386.97
2022-08-22T22:28:50.494Z,100406.13
2022-08-22T22:31:19.309Z,100398.78
2022-08-22T22:33:46.731Z,100402.38
2022-08-22T22:36:18.524Z,100396.69
2022-08-22T22:38:46.282Z,100409.88
2022-08-22T22:41:13.802Z,100415.66
2022-08-22T22:43:41.070Z,100424.31
2022-08-22T22:46:08.885Z,100414.09
2022-08-22T22:48:36.262Z,100425.59
2022-08-22T22:51:09.195Z,100443.59
2022-08-22T22:53:40.362Z,100433.00
2022-08-22T22:56:13.389Z,100445.31
2022-08-22T22:58:42.274Z,100439.97
2022-08-22T23:01:21.218Z,100437.09
2022-08-22T23:03:53.967Z,100441.22
2022-08-22T23:06:23.953Z,100433.84
2022-08-22T23:08:51.529Z,100437.56
2022-08-22T23:11:25.455Z,100451.94
2022-08-22T23:13:53.332Z,100440.47
2022-08-22T23:16:26.579Z,100447.44
2022-08-22T23:18:55.446Z,100440.50
2022-08-22T23:21:30.245Z,100438.09
2022-08-22T23:23:59.441Z,100439.72
2022-08-22T23:26:27.320Z,100451.16
2022-08-22T23:28:54.589Z,100444.63
2022-08-22T23:31:32.645Z,100451.97
2022-08-22T23:34:09.252Z,100463.44
2022-08-22T23:36:37.594Z,100451.19
2022-08-22T23:39:06.500Z,100467.13
2022-08-22T23:41:34.001Z,100463.81
2022-08-22T23:44:01.269Z,100465.84
2022-08-22T23:46:28.503Z,100463.38
2022-08-22T23:48:58.963Z,100463.38
2022-08-22T23:51:26.640Z,100451.91
2022-08-22T23:53:55.900Z,100458.88
2022-08-22T23:56:32.681Z,100464.97
2022-08-22T23:59:01.899Z,100448.25
